createdAt,value
2018-04-02T15:50:40.393Z,14
2018-04-02T15:55:42.902Z,7
2018-04-02T16:00:45.316Z,7
2018-04-02T16:10:50.203Z,8
2018-04-02T16:25:57.538Z,8
2018-04-02T16:30:59.992Z,7
2018-04-02T16:36:02.477Z,9
2018-04-02T16:41:04.843Z,8
2018-04-02T16:46:07.372Z,8
2018-04-02T16:51:09.752Z,9
2018-04-02T16:56:12.226Z,10
2018-04-02T17:06:17.104Z,10
2018-04-02T17:11:19.532Z,8
2018-04-02T17:16:21.978Z,8
2018-04-02T17:21:24.411Z,7
2018-04-02T17:26:26.855Z,7.5
2018-04-02T17:31:29.341Z,8
2018-04-02T17:36:31.790Z,8
2018-04-02T17:41:34.211Z,8
2018-04-02T17:46:36.676Z,10
2018-04-02T17:51:39.707Z,8
2018-04-02T17:56:41.543Z,8
2018-04-02T18:01:43.969Z,8
2018-04-02T18:06:46.496Z,9
2018-04-02T18:11:48.867Z,10
2018-04-02T18:16:51.630Z,8
2018-04-02T18:21:53.762Z,7
2018-04-02T18:26:56.216Z,9
2018-04-02T18:31:58.700Z,10
2018-04-02T18:37:01.108Z,8
2018-04-02T18:42:03.596Z,9
2018-04-02T18:47:06.004Z,10
2018-04-02T18:52:08.468Z,9
2018-04-02T18:57:10.897Z,8
2018-04-02T19:02:13.369Z,8
2018-04-02T19:07:15.811Z,9
2018-04-02T19:12:18.280Z,9
2018-04-02T19:17:20.706Z,9
2018-04-02T19:22:23.165Z,10
2018-04-02T19:27:25.663Z,9
2018-04-02T19:32:28.105Z,10
2018-04-02T19:37:30.578Z,10
2018-04-02T19:42:33.038Z,10
2018-04-02T19:47:35.429Z,12
2018-04-02T19:52:37.873Z,9
2018-04-02T19:57:40.309Z,11
2018-04-02T20:02:42.749Z,9
2018-04-02T20:07:45.220Z,8
2018-04-02T20:12:47.648Z,9
2018-04-02T20:17:50.111Z,10
2018-04-02T20:22:52.626Z,8
2018-04-02T20:27:54.990Z,9
2018-04-02T20:32:57.493Z,9
2018-04-02T20:37:59.899Z,8
2018-04-02T20:43:02.353Z,8
2018-04-02T20:48:04.790Z,8
2018-04-02T20:53:07.270Z,8.5
2018-04-02T20:58:09.683Z,9
2018-04-02T21:03:12.209Z,7
2018-04-02T21:08:14.573Z,7
2018-04-02T21:13:17.056Z,7
2018-04-02T21:18:19.460Z,6
2018-04-02T21:23:21.974Z,7
2018-04-02T21:28:24.364Z,6.5
2018-04-02T21:33:26.801Z,6.5
2018-04-02T21:38:29.254Z,6
2018-04-02T21:43:31.706Z,5
2018-04-02T21:48:34.177Z,7
2018-04-02T21:53:36.581Z,5
2018-04-02T21:58:39.060Z,7
2018-04-02T22:03:41.484Z,7
2018-04-02T22:08:43.959Z,6
2018-04-02T22:13:46.379Z,6
2018-04-02T22:23:51.306Z,5
2018-04-02T22:28:53.729Z,5
2018-04-02T22:33:56.171Z,6
2018-04-02T22:38:58.632Z,5
2018-04-02T22:44:01.093Z,5
2018-04-02T22:49:03.517Z,5
2018-04-02T22:54:05.970Z,5
2018-04-02T22:59:08.427Z,5
2018-04-02T23:04:10.861Z,4
2018-04-02T23:09:13.327Z,5
2018-04-02T23:14:15.751Z,5
2018-04-02T23:19:18.195Z,6
2018-04-02T23:24:20.698Z,5
2018-04-02T23:29:23.099Z,4
2018-04-02T23:34:25.587Z,5
2018-04-02T23:39:27.994Z,4
2018-04-02T23:44:30.453Z,4
2018-04-02T23:49:32.899Z,5
2018-04-02T23:54:35.355Z,4
2018-04-02T23:59:37.789Z,5
